Time;durP1;ratioP1;P1;durP2;ratioP2;P2;SDS_P1;SDS_P2;PMS_P1;PMS_P2;Temp;Humidity;BMP_temperature;BMP_pressure;BME280_temperature;BME280_humidity;BME280_pressure;Samples;Min_cycle;Max_cycle;Signal;HPM_P1;HPM_P2
2023/06/16 00:02:13;;;;;;;5.93;2.63;;;17.40;99.90;;;;;;5000710;28;20402;-93
2023/06/16 00:04:40;;;;;;;8.10;2.55;;;17.60;99.90;;;;;;4997913;28;20025;-93
2023/06/16 00:07:06;;;;;;;4.97;2.25;;;17.80;99.90;;;;;;4997367;28;20482;-93
2023/06/16 00:09:32;;;;;;;3.33;2.10;;;17.90;99.90;;;;;;5014474;28;20036;-94
2023/06/16 00:11:58;;;;;;;4.65;2.55;;;18.00;99.90;;;;;;4998006;28;20026;-94
2023/06/16 00:14:24;;;;;;;4.85;2.28;;;18.00;99.90;;;;;;4998410;28;20048;-94
2023/06/16 00:16:52;;;;;;;6.00;2.25;;;18.00;99.90;;;;;;4999331;28;20033;-94
2023/06/16 00:19:18;;;;;;;7.35;1.95;;;17.90;99.90;;;;;;5016185;28;20025;-91
2023/06/16 00:21:45;;;;;;;5.20;2.53;;;17.90;99.90;;;;;;5019665;28;20014;-90
2023/06/16 00:24:11;;;;;;;7.20;2.90;;;17.80;99.90;;;;;;5008503;28;20033;-92
2023/06/16 00:26:37;;;;;;;4.22;2.30;;;17.80;99.90;;;;;;4997286;28;20026;-91
2023/06/16 00:29:03;;;;;;;4.53;2.35;;;17.70;99.90;;;;;;5014142;28;20034;-90
2023/06/16 00:31:32;;;;;;;4.25;2.53;;;17.60;99.90;;;;;;4996676;28;20080;-91
2023/06/16 00:33:59;;;;;;;3.78;2.15;;;17.60;99.90;;;;;;4996702;28;20057;-91
2023/06/16 00:36:24;;;;;;;13.32;2.65;;;17.60;99.90;;;;;;5014131;28;20022;-90
2023/06/16 00:38:50;;;;;;;6.20;2.47;;;17.50;99.90;;;;;;4996141;28;20513;-90
2023/06/16 00:41:16;;;;;;;4.93;2.88;;;17.50;99.90;;;;;;4996909;28;20064;-92
2023/06/16 00:43:42;;;;;;;5.50;1.95;;;17.40;99.90;;;;;;4996346;28;20037;-92
2023/06/16 00:46:11;;;;;;;4.25;2.13;;;17.40;99.90;;;;;;4996255;28;20022;-92
2023/06/16 00:48:37;;;;;;;5.22;2.40;;;17.40;99.90;;;;;;4996317;28;20034;-92
2023/06/16 00:51:02;;;;;;;5.90;1.90;;;17.40;99.90;;;;;;4996045;28;20030;-93
2023/06/16 00:53:31;;;;;;;5.22;2.20;;;17.30;99.90;;;;;;4995956;28;20034;-91
2023/06/16 00:55:58;;;;;;;3.78;2.47;;;17.30;99.90;;;;;;4996400;28;20053;-92
2023/06/16 00:58:24;;;;;;;5.68;2.28;;;17.20;99.90;;;;;;4996516;28;20073;-91
2023/06/16 01:00:51;;;;;;;5.57;3.05;;;17.20;99.90;;;;;;4996193;28;20061;-92
2023/06/16 01:03:17;;;;;;;3.13;2.20;;;17.20;99.90;;;;;;4996294;28;20026;-92
2023/06/16 01:05:43;;;;;;;6.88;2.72;;;17.20;99.90;;;;;;4996119;28;20084;-91
2023/06/16 01:08:30;;;;;;;3.08;1.77;;;17.20;99.90;;;;;;4996119;28;20041;-92
2023/06/16 01:11:10;;;;;;;5.95;2.10;;;17.20;99.90;;;;;;4994483;28;20030;-91
2023/06/16 01:13:55;;;;;;;3.88;1.92;;;17.20;99.90;;;;;;4993997;28;20125;-90
2023/06/16 01:16:28;;;;;;;4.75;2.83;;;17.20;99.90;;;;;;4995579;28;20025;-88
2023/06/16 01:18:54;;;;;;;6.18;2.90;;;17.20;99.90;;;;;;4995856;28;20045;-91
2023/06/16 01:21:37;;;;;;;5.72;2.47;;;17.20;99.90;;;;;;4995921;28;20038;-90
2023/06/16 01:24:09;;;;;;;6.75;2.17;;;17.20;99.90;;;;;;5013319;28;20483;-90
2023/06/16 01:26:40;;;;;;;4.00;2.33;;;17.20;99.90;;;;;;5013184;28;20593;-90
2023/06/16 01:29:08;;;;;;;4.45;2.72;;;17.20;99.90;;;;;;5013157;28;20038;-90
2023/06/16 01:31:36;;;;;;;4.22;2.38;;;17.20;99.90;;;;;;5013433;28;20030;-90
2023/06/16 01:34:03;;;;;;;3.95;2.17;;;17.20;99.90;;;;;;5014622;28;20022;-89
2023/06/16 01:36:31;;;;;;;4.32;2.67;;;17.20;99.90;;;;;;4994937;28;20022;-91
2023/06/16 01:39:01;;;;;;;3.40;2.28;;;17.20;99.90;;;;;;4999010;28;20125;-91
2023/06/16 01:41:28;;;;;;;4.43;2.35;;;17.30;99.90;;;;;;5017281;28;20065;-90
2023/06/16 01:43:54;;;;;;;3.65;2.47;;;17.30;99.90;;;;;;4999583;28;20036;-89
2023/06/16 01:46:21;;;;;;;3.78;1.92;;;17.30;99.90;;;;;;5016916;28;20026;-90
2023/06/16 01:48:47;;;;;;;3.67;2.28;;;17.30;99.90;;;;;;4999512;28;20096;-90
2023/06/16 01:51:14;;;;;;;5.32;2.20;;;17.30;99.90;;;;;;5016163;28;20426;-89
2023/06/16 01:53:40;;;;;;;4.03;2.83;;;17.30;99.90;;;;;;4999057;28;20044;-88
2023/06/16 01:56:05;;;;;;;4.43;2.20;;;17.30;99.90;;;;;;5016398;28;20033;-90
2023/06/16 01:58:31;;;;;;;4.50;2.08;;;17.40;99.90;;;;;;4998667;28;20513;-90
2023/06/16 02:01:07;;;;;;;3.47;2.25;;;17.30;99.90;;;;;;4999369;28;20025;-90
2023/06/16 02:03:47;;;;;;;3.92;2.83;;;17.30;99.90;;;;;;4998743;28;20088;-90
2023/06/16 02:06:19;;;;;;;4.90;2.28;;;17.30;99.90;;;;;;5016604;28;20473;-91
2023/06/16 02:08:48;;;;;;;7.35;2.55;;;17.20;99.90;;;;;;4998711;28;20038;-90
2023/06/16 02:11:15;;;;;;;4.38;2.47;;;17.20;99.90;;;;;;4998961;28;20025;-90
2023/06/16 02:13:41;;;;;;;10.48;2.55;;;17.20;99.90;;;;;;4998582;28;20065;-89
2023/06/16 02:16:07;;;;;;;4.10;2.47;;;17.10;99.90;;;;;;4999618;28;20084;-91
2023/06/16 02:18:33;;;;;;;7.07;2.70;;;17.10;99.90;;;;;;5016331;28;20495;-90
2023/06/16 02:20:59;;;;;;;7.40;2.45;;;17.10;99.90;;;;;;5017246;28;20093;-91
2023/06/16 02:23:25;;;;;;;3.80;2.70;;;17.10;99.90;;;;;;5004606;28;20034;-90
2023/06/16 02:25:51;;;;;;;4.30;2.10;;;17.10;99.90;;;;;;4998304;28;20403;-91
2023/06/16 02:28:17;;;;;;;5.28;3.20;;;17.20;99.90;;;;;;4999820;28;20037;-91
2023/06/16 02:30:44;;;;;;;3.95;2.28;;;17.30;99.90;;;;;;4998492;28;20022;-91
2023/06/16 02:33:12;;;;;;;7.28;2.55;;;17.40;99.90;;;;;;4998422;28;20507;-91
2023/06/16 02:35:39;;;;;;;3.55;2.13;;;17.50;99.90;;;;;;4997202;28;20521;-91
2023/06/16 02:38:05;;;;;;;5.07;2.05;;;17.60;99.90;;;;;;4998720;28;20029;-91
2023/06/16 02:40:30;;;;;;;5.18;2.08;;;17.60;99.90;;;;;;4998170;28;20087;-91
2023/06/16 02:42:56;;;;;;;5.72;2.80;;;17.50;99.90;;;;;;4998171;28;20073;-90
2023/06/16 02:45:22;;;;;;;5.63;2.40;;;17.50;99.90;;;;;;4997822;28;20030;-91
2023/06/16 02:47:48;;;;;;;4.63;2.58;;;17.40;99.90;;;;;;4997647;28;20631;-92
2023/06/16 02:50:13;;;;;;;4.47;2.90;;;17.30;99.90;;;;;;5014497;28;20022;-91
2023/06/16 02:52:42;;;;;;;3.65;2.65;;;17.20;99.90;;;;;;4998209;28;20030;-91
2023/06/16 02:55:12;;;;;;;3.88;2.58;;;17.20;99.90;;;;;;5016840;28;20022;-91
2023/06/16 02:57:38;;;;;;;4.53;2.67;;;17.10;99.90;;;;;;4997482;28;20030;-90
2023/06/16 03:00:08;;;;;;;7.05;2.88;;;17.10;99.90;;;;;;5015124;28;20037;-90
2023/06/16 03:02:35;;;;;;;3.88;2.40;;;17.00;99.90;;;;;;4999014;28;20080;-91
2023/06/16 03:05:01;;;;;;;3.33;2.30;;;17.10;99.90;;;;;;5015088;28;20053;-90
2023/06/16 03:07:31;;;;;;;3.92;2.72;;;17.10;99.90;;;;;;4997517;28;20490;-90
2023/06/16 03:09:57;;;;;;;4.78;2.75;;;17.20;99.90;;;;;;4998126;28;20088;-90
2023/06/16 03:12:23;;;;;;;5.32;2.50;;;17.20;99.90;;;;;;4998611;28;20022;-91
2023/06/16 03:14:48;;;;;;;4.75;2.65;;;17.30;99.90;;;;;;5015850;28;20064;-91
2023/06/16 03:17:14;;;;;;;3.63;2.63;;;17.40;99.90;;;;;;4998633;28;20048;-91
2023/06/16 03:19:42;;;;;;;3.90;2.80;;;17.50;99.90;;;;;;4997992;28;20029;-89
2023/06/16 03:22:07;;;;;;;4.63;2.17;;;17.60;99.90;;;;;;4998390;28;20091;-90
2023/06/16 03:24:33;;;;;;;6.20;2.63;;;17.80;99.90;;;;;;4998563;28;20618;-90
2023/06/16 03:26:59;;;;;;;5.70;3.10;;;17.80;99.90;;;;;;5018477;28;20459;-90
2023/06/16 03:29:25;;;;;;;4.30;2.40;;;17.90;99.90;;;;;;5013065;28;20044;-90
2023/06/16 03:31:51;;;;;;;4.82;2.72;;;17.80;99.90;;;;;;5019004;28;20060;-90
2023/06/16 03:34:16;;;;;;;6.25;3.17;;;17.80;99.90;;;;;;5011668;28;20026;-90
2023/06/16 03:36:42;;;;;;;4.47;2.95;;;17.70;99.90;;;;;;5000777;28;20072;-90
2023/06/16 03:39:08;;;;;;;6.75;3.05;;;17.70;99.90;;;;;;4998982;28;20029;-90
2023/06/16 03:41:34;;;;;;;3.47;2.22;;;17.70;99.90;;;;;;4998300;28;20029;-89
2023/06/16 03:44:00;;;;;;;6.07;3.03;;;17.60;99.90;;;;;;4996870;28;20033;-91
2023/06/16 03:46:33;;;;;;;4.68;2.60;;;17.60;99.90;;;;;;4996780;28;20029;-90
2023/06/16 03:48:58;;;;;;;5.07;3.30;;;17.60;99.90;;;;;;4996922;28;20044;-91
2023/06/16 03:51:25;;;;;;;4.72;2.47;;;17.70;99.90;;;;;;4997342;28;20022;-90
2023/06/16 03:53:51;;;;;;;3.97;2.75;;;17.70;99.90;;;;;;4997117;28;20071;-91
2023/06/16 03:56:20;;;;;;;3.75;2.33;;;17.80;99.90;;;;;;4997452;28;20437;-90
2023/06/16 03:58:48;;;;;;;3.53;2.20;;;17.90;99.90;;;;;;4997465;28;20072;-90
2023/06/16 04:01:15;;;;;;;4.18;2.33;;;18.00;99.90;;;;;;4996172;28;20084;-90
2023/06/16 04:03:40;;;;;;;5.97;2.25;;;18.00;99.90;;;;;;4996950;28;20034;-90
2023/06/16 04:06:06;;;;;;;4.85;3.17;;;18.10;99.90;;;;;;4996696;28;20562;-91
2023/06/16 04:08:32;;;;;;;8.00;2.67;;;18.30;99.90;;;;;;4996935;28;20034;-91
2023/06/16 04:10:58;;;;;;;6.20;2.95;;;18.40;99.90;;;;;;4996374;28;20030;-90
2023/06/16 04:13:27;;;;;;;5.03;2.40;;;18.40;99.90;;;;;;4996427;28;20046;-90
2023/06/16 04:15:53;;;;;;;6.68;3.85;;;18.50;99.90;;;;;;5014369;28;20081;-90
2023/06/16 04:18:18;;;;;;;5.13;2.80;;;18.50;99.90;;;;;;4996625;28;20033;-89
2023/06/16 04:20:44;;;;;;;5.20;2.95;;;18.60;99.90;;;;;;4996351;28;20113;-91
2023/06/16 04:23:10;;;;;;;4.28;2.92;;;18.60;99.90;;;;;;5001597;28;20026;-91
2023/06/16 04:25:37;;;;;;;9.27;2.72;;;18.70;99.90;;;;;;4997189;28;20033;-90
2023/06/16 04:28:03;;;;;;;4.93;2.85;;;18.80;99.90;;;;;;4996527;28;20033;-90
2023/06/16 04:30:30;;;;;;;10.40;2.85;;;18.80;99.90;;;;;;4995725;28;20073;-91
2023/06/16 04:32:59;;;;;;;5.15;2.42;;;18.80;99.90;;;;;;4996297;28;20545;-90
2023/06/16 04:35:31;;;;;;;5.28;2.80;;;18.90;99.90;;;;;;4995388;28;20486;-91
2023/06/16 04:38:00;;;;;;;6.28;3.45;;;18.90;99.90;;;;;;4995673;28;20026;-90
2023/06/16 04:40:27;;;;;;;7.30;2.60;;;18.90;99.90;;;;;;4995603;28;20033;-91
2023/06/16 04:42:53;;;;;;;3.17;2.35;;;19.00;99.90;;;;;;4996453;28;20176;-92
2023/06/16 04:45:20;;;;;;;4.45;3.20;;;19.00;99.90;;;;;;4996537;28;20470;-91
2023/06/16 04:47:46;;;;;;;5.68;2.72;;;19.00;99.90;;;;;;4996471;28;20056;-91
2023/06/16 04:50:13;;;;;;;9.30;3.28;;;19.10;99.90;;;;;;4996099;28;20374;-91
2023/06/16 04:52:39;;;;;;;4.18;2.47;;;19.20;99.90;;;;;;4995468;28;20104;-90
2023/06/16 04:55:06;;;;;;;5.97;2.50;;;19.20;99.90;;;;;;4995748;28;20115;-91
2023/06/16 04:57:34;;;;;;;10.55;2.88;;;19.30;99.90;;;;;;5013386;28;20030;-89
2023/06/16 05:00:03;;;;;;;4.65;2.58;;;19.30;99.90;;;;;;4996220;28;20056;-91
2023/06/16 05:02:28;;;;;;;3.28;2.33;;;19.40;99.90;;;;;;5014014;28;20022;-91
2023/06/16 05:04:55;;;;;;;6.25;2.50;;;19.60;93.30;;;;;;4995641;28;20068;-90
2023/06/16 05:07:21;;;;;;;4.53;2.42;;;19.70;91.70;;;;;;4995501;28;20387;-91
2023/06/16 05:09:46;;;;;;;3.55;2.47;;;19.70;92.70;;;;;;4995368;28;20030;-89
2023/06/16 05:12:12;;;;;;;7.50;2.40;;;19.80;90.10;;;;;;4997721;28;20030;-89
2023/06/16 05:14:38;;;;;;;3.83;2.38;;;20.00;76.80;;;;;;4998194;28;20053;-90
2023/06/16 05:17:04;;;;;;;6.97;2.58;;;20.10;72.30;;;;;;4999420;28;20475;-92
2023/06/16 05:19:32;;;;;;;4.53;2.65;;;20.30;76.50;;;;;;5005020;28;20062;-90
2023/06/16 05:21:58;;;;;;;6.38;2.50;;;20.40;70.50;;;;;;4998352;28;20094;-90
2023/06/16 05:24:24;;;;;;;7.55;2.28;;;20.50;68.80;;;;;;4999321;28;20057;-92
2023/06/16 05:26:50;;;;;;;9.20;2.20;;;20.60;68.00;;;;;;4999245;28;20038;-91
2023/06/16 05:29:16;;;;;;;6.68;2.28;;;20.60;68.70;;;;;;4999013;28;20034;-91
2023/06/16 05:31:42;;;;;;;3.53;2.40;;;20.70;69.90;;;;;;5000557;28;20427;-92
2023/06/16 05:34:07;;;;;;;3.60;2.20;;;20.70;68.90;;;;;;5000240;28;20112;-92
2023/06/16 05:36:35;;;;;;;4.47;2.65;;;20.60;67.80;;;;;;5001263;28;20641;-91
2023/06/16 05:39:02;;;;;;;3.83;1.90;;;20.60;70.50;;;;;;4999021;28;20041;-91
2023/06/16 05:41:28;;;;;;;4.80;2.47;;;20.70;67.50;;;;;;4999485;28;20037;-90
2023/06/16 05:43:55;;;;;;;4.07;2.42;;;20.80;69.30;;;;;;5000065;28;20097;-91
2023/06/16 05:46:21;;;;;;;3.92;2.08;;;20.80;68.50;;;;;;4999753;28;20033;-90
2023/06/16 05:48:47;;;;;;;3.75;2.45;;;20.80;65.80;;;;;;4999510;28;20034;-90
2023/06/16 05:51:13;;;;;;;4.40;2.80;;;20.90;67.80;;;;;;4999258;28;20052;-90
2023/06/16 05:53:38;;;;;;;3.50;2.28;;;21.10;64.40;;;;;;4998375;28;20475;-91
2023/06/16 05:56:04;;;;;;;3.38;2.53;;;21.10;63.60;;;;;;4998876;28;20114;-90
2023/06/16 05:58:33;;;;;;;4.65;2.60;;;21.20;64.40;;;;;;4998748;28;20483;-91
2023/06/16 06:00:59;;;;;;;4.60;2.67;;;21.20;64.90;;;;;;4998181;28;20030;-91
2023/06/16 06:03:25;;;;;;;4.95;2.60;;;21.40;67.30;;;;;;4998580;28;20125;-89
2023/06/16 06:05:50;;;;;;;3.78;2.38;;;21.50;64.10;;;;;;4999422;28;20038;-91
2023/06/16 06:08:22;;;;;;;2.85;2.00;;;21.70;63.20;;;;;;4998341;28;20034;-91
2023/06/16 06:10:49;;;;;;;5.13;2.67;;;22.00;62.70;;;;;;4999309;28;20026;-91
2023/06/16 06:13:14;;;;;;;4.43;3.13;;;22.20;62.40;;;;;;5000525;28;20037;-91
2023/06/16 06:15:42;;;;;;;5.93;2.63;;;22.40;60.40;;;;;;5000279;28;20038;-91
2023/06/16 06:18:07;;;;;;;6.13;2.50;;;22.60;60.30;;;;;;5002167;28;20086;-92
2023/06/16 06:20:34;;;;;;;7.25;2.83;;;22.80;60.70;;;;;;5003033;28;20022;-91
2023/06/16 06:22:59;;;;;;;3.40;2.30;;;22.80;59.10;;;;;;5022542;28;20029;-90
2023/06/16 06:25:25;;;;;;;3.78;2.88;;;22.80;60.00;;;;;;5021089;28;20363;-91
2023/06/16 06:27:51;;;;;;;5.47;2.83;;;22.80;60.00;;;;;;5000252;28;20069;-91
2023/06/16 06:30:17;;;;;;;4.38;2.60;;;22.90;60.60;;;;;;5017371;28;20034;-91
2023/06/16 06:32:42;;;;;;;13.77;3.08;;;22.80;62.20;;;;;;5001387;28;20084;-93
2023/06/16 06:35:08;;;;;;;6.75;2.85;;;22.80;64.50;;;;;;4999856;28;20501;-92
2023/06/16 06:37:34;;;;;;;3.95;2.75;;;22.70;68.20;;;;;;5000458;28;20058;-91
2023/06/16 06:40:00;;;;;;;9.68;2.70;;;22.60;61.50;;;;;;5014711;28;20041;-90
2023/06/16 06:42:26;;;;;;;5.88;2.40;;;22.50;61.00;;;;;;5021196;28;20030;-90
2023/06/16 06:44:53;;;;;;;9.45;3.08;;;22.40;61.30;;;;;;5007125;28;20084;-91
2023/06/16 06:47:21;;;;;;;6.80;2.60;;;22.40;66.00;;;;;;5001082;28;20029;-92
2023/06/16 06:49:46;;;;;;;4.72;2.53;;;22.40;65.80;;;;;;4998430;28;20033;-88
2023/06/16 06:52:12;;;;;;;5.72;2.67;;;22.40;65.00;;;;;;4998954;28;20376;-88
2023/06/16 06:54:38;;;;;;;4.43;2.65;;;22.50;64.40;;;;;;4998529;28;20120;-90
2023/06/16 06:57:03;;;;;;;3.55;2.45;;;22.50;64.10;;;;;;4998422;28;20060;-88
2023/06/16 06:59:29;;;;;;;8.73;2.63;;;22.50;60.90;;;;;;4997479;28;20113;-87
2023/06/16 07:01:55;;;;;;;6.30;2.80;;;22.40;61.00;;;;;;4998342;28;20022;-88
2023/06/16 07:04:20;;;;;;;3.90;2.95;;;22.40;60.40;;;;;;4998492;28;20037;-89
2023/06/16 07:06:47;;;;;;;11.32;2.55;;;22.40;62.00;;;;;;4997203;28;20063;-88
2023/06/16 07:09:12;;;;;;;5.15;2.25;;;22.50;63.90;;;;;;4998177;28;20069;-89
2023/06/16 07:11:38;;;;;;;6.63;2.85;;;22.50;60.50;;;;;;4999581;28;20082;-88
2023/06/16 07:14:04;;;;;;;4.00;2.50;;;22.50;59.60;;;;;;4997422;28;20054;-88
2023/06/16 07:16:30;;;;;;;5.07;2.42;;;22.50;61.10;;;;;;4998019;28;20029;-89
2023/06/16 07:18:56;;;;;;;10.77;3.20;;;22.70;62.60;;;;;;5015579;28;20034;-89
2023/06/16 07:21:21;;;;;;;9.48;2.88;;;22.90;62.70;;;;;;5015500;28;20025;-90
2023/06/16 07:23:47;;;;;;;9.27;2.78;;;23.10;62.30;;;;;;4997911;28;20096;-89
2023/06/16 07:26:13;;;;;;;6.75;3.80;;;23.20;62.80;;;;;;4998035;28;20030;-89
2023/06/16 07:28:40;;;;;;;7.90;4.50;;;23.30;62.90;;;;;;4997672;28;20034;-89
2023/06/16 07:31:05;;;;;;;5.00;3.35;;;23.30;63.40;;;;;;4997822;28;20029;-89
2023/06/16 07:33:31;;;;;;;3.42;2.50;;;23.40;63.20;;;;;;4997774;28;20025;-88
2023/06/16 07:35:56;;;;;;;7.38;3.10;;;23.30;62.00;;;;;;4997751;28;20549;-90
2023/06/16 07:38:22;;;;;;;6.75;3.15;;;23.30;61.70;;;;;;5014978;28;20482;-90
2023/06/16 07:40:48;;;;;;;4.38;2.65;;;23.40;62.70;;;;;;4997354;28;20084;-89
2023/06/16 07:43:13;;;;;;;5.00;2.80;;;23.40;64.00;;;;;;4997068;28;20117;-89
2023/06/16 07:45:39;;;;;;;10.45;3.38;;;23.50;64.10;;;;;;4997237;28;20037;-88
2023/06/16 07:48:07;;;;;;;5.40;2.42;;;23.50;64.00;;;;;;4997390;28;20022;-89
2023/06/16 07:50:34;;;;;;;4.78;2.65;;;23.60;62.90;;;;;;4996650;28;20482;-89
2023/06/16 07:53:00;;;;;;;4.72;2.95;;;23.70;62.60;;;;;;5014605;28;20018;-90
2023/06/16 07:55:25;;;;;;;4.72;2.55;;;23.80;60.20;;;;;;5014501;28;20041;-89
2023/06/16 07:57:51;;;;;;;3.55;2.70;;;23.80;59.70;;;;;;4997135;28;20025;-89
2023/06/16 08:00:18;;;;;;;4.10;2.90;;;23.90;59.20;;;;;;4996424;28;20088;-89
2023/06/16 08:02:45;;;;;;;6.43;2.90;;;24.00;59.60;;;;;;4996752;28;20077;-90
2023/06/16 08:05:11;;;;;;;3.80;2.88;;;24.00;60.50;;;;;;4997215;28;20034;-90
2023/06/16 08:07:37;;;;;;;3.28;2.70;;;24.10;60.30;;;;;;4996764;28;20057;-88
2023/06/16 08:10:04;;;;;;;5.38;3.17;;;24.10;61.30;;;;;;5014433;28;20052;-90
2023/06/16 08:12:31;;;;;;;4.55;2.65;;;24.20;62.20;;;;;;4997149;28;20037;-89
2023/06/16 08:14:56;;;;;;;3.70;2.50;;;24.20;63.20;;;;;;4996758;28;20048;-89
2023/06/16 08:17:23;;;;;;;3.30;2.47;;;24.30;61.30;;;;;;4996806;28;20056;-89
2023/06/16 08:19:49;;;;;;;5.82;3.22;;;24.20;61.90;;;;;;5014622;28;20026;-89
2023/06/16 08:22:15;;;;;;;4.63;2.95;;;24.30;60.70;;;;;;5016232;28;20112;-90
2023/06/16 08:24:41;;;;;;;5.88;3.15;;;24.30;60.40;;;;;;4999411;28;20042;-90
2023/06/16 08:27:07;;;;;;;3.35;2.38;;;24.30;59.70;;;;;;5014133;28;20033;-89
2023/06/16 08:29:33;;;;;;;3.70;2.65;;;24.30;60.70;;;;;;5013649;28;20076;-89
2023/06/16 08:32:00;;;;;;;5.30;3.00;;;24.50;61.80;;;;;;5013781;28;20065;-89
2023/06/16 08:34:26;;;;;;;6.18;3.20;;;24.40;59.10;;;;;;4996696;28;20022;-89
2023/06/16 08:36:51;;;;;;;7.22;2.90;;;24.30;59.20;;;;;;4995905;28;20037;-89
2023/06/16 08:39:17;;;;;;;5.28;3.17;;;24.20;59.40;;;;;;4995983;28;20049;-88
2023/06/16 08:41:45;;;;;;;9.65;2.75;;;24.20;62.00;;;;;;4995506;28;20117;-89
2023/06/16 08:44:14;;;;;;;11.00;3.40;;;24.30;63.10;;;;;;5012166;28;20026;-90
2023/06/16 08:46:40;;;;;;;7.72;3.67;;;24.70;61.00;;;;;;5012839;28;20592;-91
2023/06/16 08:49:06;;;;;;;5.97;2.97;;;24.90;59.50;;;;;;5013653;28;20120;-90
2023/06/16 08:51:33;;;;;;;7.30;3.00;;;24.90;59.00;;;;;;5013939;28;20021;-89
2023/06/16 08:54:03;;;;;;;5.80;3.25;;;24.70;58.00;;;;;;5013598;28;20230;-89
2023/06/16 08:56:31;;;;;;;3.67;3.00;;;24.70;57.90;;;;;;4996344;28;20093;-90
2023/06/16 08:58:59;;;;;;;7.80;3.72;;;24.90;59.70;;;;;;5013409;28;20504;-90
2023/06/16 09:01:26;;;;;;;5.03;3.45;;;25.10;59.70;;;;;;5013423;28;20026;-89
2023/06/16 09:03:53;;;;;;;6.35;3.47;;;25.30;59.90;;;;;;4999508;28;20029;-90
2023/06/16 09:06:19;;;;;;;3.30;2.80;;;25.30;58.60;;;;;;4996316;28;20029;-89
2023/06/16 09:08:44;;;;;;;8.20;3.25;;;25.20;59.90;;;;;;4995853;28;20052;-90
2023/06/16 09:11:10;;;;;;;6.13;3.53;;;25.30;57.30;;;;;;4996121;28;20080;-89
2023/06/16 09:13:42;;;;;;;4.45;3.22;;;25.10;57.80;;;;;;5013373;28;20046;-88
2023/06/16 09:16:09;;;;;;;10.30;3.70;;;25.00;59.20;;;;;;4999249;28;20022;-88
2023/06/16 09:18:40;;;;;;;6.45;3.30;;;24.80;59.90;;;;;;5005828;28;20034;-90
2023/06/16 09:21:07;;;;;;;6.40;2.67;;;24.70;60.50;;;;;;5005415;28;20029;-90
2023/06/16 09:23:34;;;;;;;4.55;2.60;;;24.80;60.90;;;;;;4995544;28;20168;-89
2023/06/16 09:25:59;;;;;;;8.25;3.72;;;24.90;59.30;;;;;;4995520;28;20285;-89
2023/06/16 09:28:37;;;;;;;4.00;3.10;;;25.00;59.20;;;;;;4996291;28;20053;-90
2023/06/16 09:31:04;;;;;;;6.85;3.30;;;25.30;59.20;;;;;;4997283;28;20557;-89
2023/06/16 09:33:31;;;;;;;9.43;3.53;;;25.60;59.10;;;;;;4997446;28;20494;-88
2023/06/16 09:36:00;;;;;;;4.68;3.10;;;26.00;57.90;;;;;;4997037;28;20054;-89
2023/06/16 09:38:28;;;;;;;4.10;2.92;;;26.10;55.10;;;;;;4997110;28;20640;-90
2023/06/16 09:41:06;;;;;;;5.57;3.28;;;26.00;55.60;;;;;;4996673;28;20053;-90
2023/06/16 09:43:31;;;;;;;3.60;2.63;;;26.20;56.40;;;;;;5014628;28;20026;-87
2023/06/16 09:45:57;;;;;;;3.95;3.00;;;26.30;54.60;;;;;;4998180;28;20026;-89
2023/06/16 09:48:26;;;;;;;4.03;3.05;;;26.20;56.30;;;;;;5018799;28;20028;-90
2023/06/16 09:50:58;;;;;;;11.25;3.13;;;26.30;56.80;;;;;;5019182;28;20018;-88
2023/06/16 09:53:26;;;;;;;8.38;3.33;;;26.10;55.50;;;;;;5002608;28;20045;-90
2023/06/16 09:55:55;;;;;;;5.10;3.15;;;26.10;55.40;;;;;;4998390;28;20029;-90
2023/06/16 09:58:21;;;;;;;5.95;3.55;;;25.80;56.50;;;;;;4995712;28;20085;-91
2023/06/16 10:00:47;;;;;;;4.28;3.25;;;25.70;55.80;;;;;;4999111;28;20421;-90
2023/06/16 10:03:13;;;;;;;9.23;3.30;;;25.40;56.70;;;;;;4999574;28;20040;-89
2023/06/16 10:05:40;;;;;;;7.85;3.45;;;25.20;57.90;;;;;;4998975;28;20118;-89
2023/06/16 10:08:07;;;;;;;8.15;3.78;;;25.10;59.00;;;;;;5016425;28;20033;-90
2023/06/16 10:10:35;;;;;;;4.47;3.22;;;25.10;59.30;;;;;;5016270;28;20108;-89
2023/06/16 10:13:04;;;;;;;4.40;3.42;;;25.20;59.90;;;;;;4999003;28;20109;-89
2023/06/16 10:15:34;;;;;;;4.32;2.95;;;25.30;59.80;;;;;;4995604;28;20049;-89
2023/06/16 10:18:05;;;;;;;5.40;3.92;;;25.40;58.60;;;;;;4996688;28;20084;-90
2023/06/16 10:20:37;;;;;;;4.93;3.33;;;25.30;57.90;;;;;;5002069;28;20093;-89
2023/06/16 10:23:03;;;;;;;6.05;3.38;;;25.00;59.50;;;;;;4995975;28;20022;-91
2023/06/16 10:25:30;;;;;;;6.05;3.55;;;25.00;61.30;;;;;;4995614;28;20040;-90
2023/06/16 10:27:57;;;;;;;5.07;3.25;;;24.90;61.20;;;;;;4994868;28;20034;-89
2023/06/16 10:30:24;;;;;;;6.68;3.10;;;25.00;60.70;;;;;;4995694;28;20030;-89
2023/06/16 10:32:52;;;;;;;11.80;3.50;;;24.90;61.10;;;;;;4996355;28;20098;-89
2023/06/16 10:35:18;;;;;;;4.70;2.85;;;24.70;61.70;;;;;;4994803;28;20108;-88
2023/06/16 10:37:50;;;;;;;5.25;3.53;;;24.60;61.90;;;;;;4995404;28;20025;-90
2023/06/16 10:40:19;;;;;;;5.85;3.22;;;24.60;62.20;;;;;;4995380;28;20034;-88
2023/06/16 10:42:46;;;;;;;5.35;3.20;;;24.60;59.70;;;;;;4994247;28;20085;-89
2023/06/16 10:45:29;;;;;;;5.00;3.13;;;24.50;60.70;;;;;;4994212;28;20027;-90
2023/06/16 10:48:03;;;;;;;7.43;3.03;;;24.50;63.10;;;;;;4995249;28;20029;-90
2023/06/16 10:50:30;;;;;;;4.68;3.58;;;24.50;62.10;;;;;;4994590;28;20034;-89
2023/06/16 10:53:06;;;;;;;7.95;3.13;;;24.40;62.80;;;;;;4995152;28;20049;-89
2023/06/16 10:55:33;;;;;;;;;;;24.40;63.50;;;;;;4996232;28;20081;-88
2023/06/16 10:58:14;;;;;;;6.45;3.55;;;24.40;64.70;;;;;;4995336;28;20306;-89
2023/06/16 11:00:44;;;;;;;4.45;3.28;;;24.20;62.70;;;;;;4995066;28;20026;-90
2023/06/16 11:03:10;;;;;;;5.65;3.20;;;23.90;63.60;;;;;;4995208;28;20458;-89
2023/06/16 11:05:44;;;;;;;13.23;3.33;;;23.90;64.50;;;;;;4994909;28;20038;-89
2023/06/16 11:08:11;;;;;;;6.47;3.13;;;23.70;65.00;;;;;;4995085;28;20400;-89
2023/06/16 11:11:06;;;;;;;10.95;3.58;;;23.70;65.50;;;;;;4993882;28;20068;-90
2023/06/16 11:13:39;;;;;;;4.68;3.53;;;23.80;64.80;;;;;;4988475;28;20062;-89
2023/06/16 11:16:06;;;;;;;6.80;3.22;;;23.80;66.20;;;;;;4995004;28;20041;-90
2023/06/16 11:18:35;;;;;;;5.32;2.90;;;23.70;65.60;;;;;;4994056;28;20037;-90
2023/06/16 11:21:08;;;;;;;4.07;3.05;;;23.70;65.80;;;;;;4994192;28;20085;-89
2023/06/16 11:23:35;;;;;;;7.45;3.53;;;23.60;67.00;;;;;;4993940;28;20034;-88
2023/06/16 11:26:08;;;;;;;4.28;3.25;;;23.70;65.80;;;;;;4998621;28;20104;-90
2023/06/16 11:28:36;;;;;;;5.57;3.50;;;23.80;67.10;;;;;;4994481;28;20030;-89
2023/06/16 11:31:05;;;;;;;6.22;3.08;;;23.80;67.40;;;;;;4994579;28;20034;-90
2023/06/16 11:33:32;;;;;;;8.82;3.55;;;23.80;66.70;;;;;;4994389;28;20067;-89
2023/06/16 11:36:16;;;;;;;4.68;2.90;;;23.90;66.60;;;;;;4994132;28;20037;-90
2023/06/16 11:38:43;;;;;;;5.35;3.30;;;23.90;66.00;;;;;;4993498;28;20029;-89
2023/06/16 11:41:35;;;;;;;7.97;3.67;;;23.80;67.10;;;;;;4994325;28;20069;-89
2023/06/16 11:44:01;;;;;;;5.53;4.03;;;24.10;66.10;;;;;;4993061;28;20046;-90
2023/06/16 11:46:30;;;;;;;7.07;3.30;;;24.10;66.30;;;;;;4994247;28;20030;-90
2023/06/16 11:48:56;;;;;;;6.47;3.35;;;24.20;66.30;;;;;;4994166;28;20034;-91
2023/06/16 11:51:23;;;;;;;12.05;3.15;;;24.30;66.00;;;;;;4995487;28;20031;-90
2023/06/16 11:53:50;;;;;;;7.88;3.00;;;24.30;65.80;;;;;;4996517;28;20124;-90
2023/06/16 11:56:16;;;;;;;7.28;3.10;;;24.50;66.50;;;;;;4993078;28;20027;-91
2023/06/16 11:58:44;;;;;;;7.47;3.17;;;24.70;65.00;;;;;;4994980;28;20035;-89
2023/06/16 12:01:14;;;;;;;7.30;3.00;;;24.90;65.20;;;;;;4993724;28;20027;-90
2023/06/16 12:03:41;;;;;;;7.75;2.92;;;24.90;64.60;;;;;;4993129;28;20030;-90
2023/06/16 12:06:07;;;;;;;3.63;3.03;;;24.90;64.00;;;;;;4994100;28;20034;-90
2023/06/16 12:08:48;;;;;;;6.95;3.38;;;25.00;64.60;;;;;;4993783;28;20125;-90
2023/06/16 12:11:29;;;;;;;6.15;3.55;;;25.20;64.10;;;;;;4994292;28;20023;-90
2023/06/16 12:13:56;;;;;;;4.80;3.25;;;25.10;64.90;;;;;;5000962;28;20112;-90
2023/06/16 12:16:22;;;;;;;3.35;2.75;;;25.00;64.20;;;;;;4995893;28;20646;-89
2023/06/16 12:18:52;;;;;;;3.88;3.08;;;24.80;64.90;;;;;;5002424;28;20113;-90
2023/06/16 12:21:20;;;;;;;5.60;3.28;;;24.60;64.40;;;;;;4995486;28;20498;-90
2023/06/16 12:23:54;;;;;;;5.40;2.90;;;24.70;64.90;;;;;;4995779;28;20037;-90
2023/06/16 12:26:31;;;;;;;5.65;4.07;;;24.70;65.80;;;;;;4996539;28;20475;-90
2023/06/16 12:28:59;;;;;;;4.15;3.30;;;24.70;64.80;;;;;;5014161;28;20447;-89
2023/06/16 12:31:31;;;;;;;4.47;3.50;;;24.60;65.20;;;;;;5013968;28;20028;-89
2023/06/16 12:33:57;;;;;;;6.25;3.05;;;24.60;64.10;;;;;;4995840;28;20068;-90
2023/06/16 12:36:23;;;;;;;6.07;3.55;;;24.60;65.80;;;;;;4996707;28;20486;-89
2023/06/16 12:38:50;;;;;;;5.07;2.95;;;24.60;65.70;;;;;;4996537;28;20033;-90
2023/06/16 12:41:17;;;;;;;5.75;3.38;;;24.50;63.10;;;;;;5013961;28;20087;-91
2023/06/16 12:43:51;;;;;;;5.03;3.08;;;24.50;64.10;;;;;;4998566;28;20068;-89
2023/06/16 12:46:18;;;;;;;4.78;3.22;;;24.50;64.60;;;;;;4995777;28;20022;-90
2023/06/16 12:48:44;;;;;;;5.88;3.30;;;24.50;64.60;;;;;;5016903;28;20060;-90